Airport View

Enter AWOS ICAO identifier for current METAR.

ex. KFNL

KRCM 300345Z AUTO 31003KT 10SM CLR 02/M01 A3020 RMK AO2

30 Oct 2020 03:46

Frequency: 119.575

Phone: 660-422-7010

Other Area AWOS: KSZL - KGLY - KLRY - KLXT

TAF KSZL 300300Z 3003/3109 34009KT 9999 SKC QNH3020INS BECMG 3008/3009 24009KT 9999 SKC QNH3015INS TX10/3020Z TN02/3009Z